Arctur — T8A2555 — position and weather

sailwx.info

Track history (hours):
 
Tides and Currents Weather Stations Pressure Air Temp Water Temp Dewpoint Dewpoint Depression Visibility Wind Speed Wind Dir Waves Ship Positions

Arctur

Last reported at 2018-Jun-26 23:00 UTC. Time now 2018-Jul-22 10:37 UTC.
Position N 45°19' E 036°33'.
Warning: this ship's position is 25 days out of date.

Length 108 m; draft 3.3 m.

Type: Cargo ship. MMSI: 511472000.

Date/timePositionNaut miles runAvg speedWind from/ knotsBaromVisibWave heightAir tempDewpointWater temp
2018-Jun-26 23:00N 45°19' E 036°33'4 7.5
2018-Jun-26 22:30N 45°20' E 036°38'3 6.2
2018-Jun-26 22:00N 45°23' E 036°40'7 6.0
2018-Jun-26 20:54N 45°28' E 036°45'  
2018-Jun-23 23:29N 45°24' E 036°42'4 7.9
2018-Jun-23 23:00N 45°21' E 036°40'4 7.7
2018-Jun-23 22:30N 45°19' E 036°35'9 1.2
2018-Jun-23 14:49N 45°11' E 036°29'0 0.0
2018-Jun-23 10:07N 45°11' E 036°29'0 0.0
2018-Jun-23 07:46N 45°11' E 036°29'0 0.0
2018-Jun-23 07:28N 45°11' E 036°29'143 6.3
2018-Jun-22 08:49N 43°58' E 033°37'3 8.7
2018-Jun-22 08:30N 43°57' E 033°33'4 8.6
2018-Jun-22 08:00N 43°55' E 033°28'9 8.6
2018-Jun-22 06:57N 43°49' E 033°18'4 8.6
2018-Jun-22 06:28N 43°46' E 033°14'4 8.9
2018-Jun-22 06:00N 43°43' E 033°10'4 8.8
2018-Jun-22 05:30N 43°40' E 033°05'6 8.8
2018-Jun-22 04:50N 43°37' E 032°59'4 8.8
2018-Jun-22 04:26N 43°34' E 032°55'8 9.1
2018-Jun-22 03:35N 43°29' E 032°47'12 9.1
2018-Jun-22 02:16N 43°22' E 032°35'2 8.9
2018-Jun-22 02:00N 43°20' E 032°32'5 9.0
2018-Jun-22 01:30N 43°17' E 032°27'6 8.9
2018-Jun-22 00:51N 43°14' E 032°21'3 9.0
2018-Jun-22 00:29N 43°11' E 032°18'4 9.0
2018-Jun-22 00:00N 43°09' E 032°13'4 8.9
2018-Jun-21 23:30N 43°06' E 032°09'4 8.8
2018-Jun-21 23:00N 43°03' E 032°04'4 8.7
2018-Jun-21 22:30N 42°60' E 031°60'5 8.8
2018-Jun-21 21:59N 42°57' E 031°55'4 9.0
2018-Jun-21 21:30N 42°54' E 031°50'4 9.0
2018-Jun-21 21:00N 42°51' E 031°46'4 9.0
2018-Jun-21 20:30N 42°48' E 031°41'5 9.1
2018-Jun-21 20:00N 42°45' E 031°37'5 9.2
2018-Jun-21 19:30N 42°42' E 031°32'5 9.5
2018-Jun-21 19:00N 42°39' E 031°27'5 9.3
2018-Jun-21 18:30N 42°37' E 031°22'5 9.1
2018-Jun-21 18:00N 42°34' E 031°17'5 8.9
2018-Jun-21 17:30N 42°31' E 031°12'4 8.8
2018-Jun-21 17:00N 42°28' E 031°08'4 8.7
2018-Jun-21 16:30N 42°25' E 031°03'6 8.6
2018-Jun-21 15:50N 42°21' E 030°57'3 8.7
2018-Jun-21 15:29N 42°19' E 030°54'5 8.6
2018-Jun-21 14:54N 42°16' E 030°49'3 8.5
2018-Jun-21 14:30N 42°14' E 030°46'4 8.5
2018-Jun-21 14:00N 42°11' E 030°41'4 8.5
2018-Jun-21 13:30N 42°08' E 030°37'5 8.3
2018-Jun-21 12:52N 42°05' E 030°32'3 8.1
2018-Jun-21 12:30N 42°03' E 030°29'4 8.2
2018-Jun-21 12:00N 41°60' E 030°25'4 8.3
2018-Jun-21 11:30N 41°57' E 030°20'4 8.4
2018-Jun-21 11:00N 41°55' E 030°16'5 8.4
2018-Jun-21 10:21N 41°51' E 030°10'3 8.6
2018-Jun-21 10:01N 41°50' E 030°07'4 8.4
2018-Jun-21 09:30N 41°47' E 030°03'4 8.3
2018-Jun-21 09:01N 41°44' E 029°58'4 8.5
2018-Jun-21 08:29N 41°42' E 029°53'4 8.6
2018-Jun-21 08:00N 41°39' E 029°49'5 8.7
2018-Jun-21 07:22N 41°36' E 029°44'  
Track history (hours):
 
Tides and Currents Weather Stations Pressure Air Temp Water Temp Dewpoint Dewpoint Depression Visibility Wind Speed Wind Dir Waves Ship Positions

Arctur

Last reported at 2018-Jun-26 23:00 UTC. Time now 2018-Jul-22 10:37 UTC.
Position N 45°19' E 036°33'.
Warning: this ship's position is 25 days out of date.

Length 108 m; draft 3.3 m.

Type: Cargo ship. MMSI: 511472000.

Date/timePositionNaut miles runAvg speedWind from/ knotsBaromVisibWave heightAir tempDewpointWater temp
2018-Jun-26 23:00N 45°19' E 036°33'4 7.5
2018-Jun-26 22:30N 45°20' E 036°38'3 6.2
2018-Jun-26 22:00N 45°23' E 036°40'7 6.0
2018-Jun-26 20:54N 45°28' E 036°45'  
2018-Jun-23 23:29N 45°24' E 036°42'4 7.9
2018-Jun-23 23:00N 45°21' E 036°40'4 7.7
2018-Jun-23 22:30N 45°19' E 036°35'9 1.2
2018-Jun-23 14:49N 45°11' E 036°29'0 0.0
2018-Jun-23 10:07N 45°11' E 036°29'0 0.0
2018-Jun-23 07:46N 45°11' E 036°29'0 0.0
2018-Jun-23 07:28N 45°11' E 036°29'143 6.3
2018-Jun-22 08:49N 43°58' E 033°37'3 8.7
2018-Jun-22 08:30N 43°57' E 033°33'4 8.6
2018-Jun-22 08:00N 43°55' E 033°28'9 8.6
2018-Jun-22 06:57N 43°49' E 033°18'4 8.6
2018-Jun-22 06:28N 43°46' E 033°14'4 8.9
2018-Jun-22 06:00N 43°43' E 033°10'4 8.8
2018-Jun-22 05:30N 43°40' E 033°05'6 8.8
2018-Jun-22 04:50N 43°37' E 032°59'4 8.8
2018-Jun-22 04:26N 43°34' E 032°55'8 9.1
2018-Jun-22 03:35N 43°29' E 032°47'12 9.1
2018-Jun-22 02:16N 43°22' E 032°35'2 8.9
2018-Jun-22 02:00N 43°20' E 032°32'5 9.0
2018-Jun-22 01:30N 43°17' E 032°27'6 8.9
2018-Jun-22 00:51N 43°14' E 032°21'3 9.0
2018-Jun-22 00:29N 43°11' E 032°18'4 9.0
2018-Jun-22 00:00N 43°09' E 032°13'4 8.9
2018-Jun-21 23:30N 43°06' E 032°09'4 8.8
2018-Jun-21 23:00N 43°03' E 032°04'4 8.7
2018-Jun-21 22:30N 42°60' E 031°60'5 8.8
2018-Jun-21 21:59N 42°57' E 031°55'4 9.0
2018-Jun-21 21:30N 42°54' E 031°50'4 9.0
2018-Jun-21 21:00N 42°51' E 031°46'4 9.0
2018-Jun-21 20:30N 42°48' E 031°41'5 9.1
2018-Jun-21 20:00N 42°45' E 031°37'5 9.2
2018-Jun-21 19:30N 42°42' E 031°32'5 9.5
2018-Jun-21 19:00N 42°39' E 031°27'5 9.3
2018-Jun-21 18:30N 42°37' E 031°22'5 9.1
2018-Jun-21 18:00N 42°34' E 031°17'5 8.9
2018-Jun-21 17:30N 42°31' E 031°12'4 8.8
2018-Jun-21 17:00N 42°28' E 031°08'4 8.7
2018-Jun-21 16:30N 42°25' E 031°03'6 8.6
2018-Jun-21 15:50N 42°21' E 030°57'3 8.7
2018-Jun-21 15:29N 42°19' E 030°54'5 8.6
2018-Jun-21 14:54N 42°16' E 030°49'3 8.5
2018-Jun-21 14:30N 42°14' E 030°46'4 8.5
2018-Jun-21 14:00N 42°11' E 030°41'4 8.5
2018-Jun-21 13:30N 42°08' E 030°37'5 8.3
2018-Jun-21 12:52N 42°05' E 030°32'3 8.1
2018-Jun-21 12:30N 42°03' E 030°29'4 8.2
2018-Jun-21 12:00N 41°60' E 030°25'4 8.3
2018-Jun-21 11:30N 41°57' E 030°20'4 8.4
2018-Jun-21 11:00N 41°55' E 030°16'5 8.4
2018-Jun-21 10:21N 41°51' E 030°10'3 8.6
2018-Jun-21 10:01N 41°50' E 030°07'4 8.4
2018-Jun-21 09:30N 41°47' E 030°03'4 8.3
2018-Jun-21 09:01N 41°44' E 029°58'4 8.5
2018-Jun-21 08:29N 41°42' E 029°53'4 8.6
2018-Jun-21 08:00N 41°39' E 029°49'5 8.7
2018-Jun-21 07:22N 41°36' E 029°44'  

Dump ship's entire track history